Time;durP1;ratioP1;P1;durP2;ratioP2;P2;SDS_P1;SDS_P2;PMS_P1;PMS_P2;Temp;Humidity;BMP_temperature;BMP_pressure;BME280_temperature;BME280_humidity;BME280_pressure;Samples;Min_cycle;Max_cycle;Signal;HPM_P1;HPM_P2
2022/04/29 00:00:51;;;;;;;6.15;1.55;;;9.30;5.80;;;;;;4789585;29;20054;-89
2022/04/29 00:03:18;;;;;;;10.10;2.03;;;9.20;12.20;;;;;;4789281;29;20047;-89
2022/04/29 00:05:46;;;;;;;5.20;1.67;;;9.30;8.90;;;;;;4789529;29;20518;-89
2022/04/29 00:08:14;;;;;;;9.65;1.52;;;9.30;9.80;;;;;;4789657;29;20440;-89
2022/04/29 00:10:42;;;;;;;4.57;1.42;;;9.40;5.40;;;;;;4789762;30;20131;-89
2022/04/29 00:13:13;;;;;;;3.33;1.70;;;8.80;46.90;;;;;;4789108;29;20071;-89
2022/04/29 00:15:40;;;;;;;8.45;1.73;;;8.80;88.90;;;;;;4789411;29;20052;-90
2022/04/29 00:18:07;;;;;;;2.33;1.10;;;9.20;78.00;;;;;;4789324;29;20051;-89
2022/04/29 00:20:35;;;;;;;5.45;1.58;;;8.80;99.90;;;;;;4789837;30;20051;-90
2022/04/29 00:23:04;;;;;;;2.72;1.85;;;9.20;93.30;;;;;;4803922;29;20082;-89
2022/04/29 00:25:31;;;;;;;3.75;1.70;;;9.30;87.90;;;;;;4790496;29;20047;-89
2022/04/29 00:27:58;;;;;;;4.25;1.92;;;9.10;93.60;;;;;;4791350;30;20051;-90
2022/04/29 00:30:26;;;;;;;3.13;1.70;;;8.80;99.90;;;;;;4791291;29;20051;-89
2022/04/29 00:32:52;;;;;;;5.20;1.58;;;8.80;99.90;;;;;;4789140;30;20055;-90
2022/04/29 00:35:20;;;;;;;6.03;1.38;;;8.60;99.90;;;;;;4788826;29;20047;-89
2022/04/29 00:37:53;;;;;;;5.50;1.60;;;8.70;99.90;;;;;;4789999;29;20482;-90
2022/04/29 00:40:26;;;;;;;5.82;2.40;;;9.00;99.90;;;;;;4789184;29;20047;-90
2022/04/29 00:42:53;;;;;;;6.82;1.60;;;9.30;99.90;;;;;;4789612;30;20047;-89
2022/04/29 00:45:22;;;;;;;4.05;1.55;;;9.20;99.90;;;;;;4789218;29;20047;-89
2022/04/29 00:47:51;;;;;;;7.63;1.73;;;9.30;99.90;;;;;;4788604;29;20051;-90
2022/04/29 00:50:22;;;;;;;4.32;1.45;;;9.20;99.90;;;;;;4788551;29;20058;-90
2022/04/29 00:52:52;;;;;;;3.25;1.48;;;9.40;99.90;;;;;;4773903;30;20062;-89
2022/04/29 00:55:21;;;;;;;4.32;1.70;;;9.40;99.90;;;;;;4788741;30;20111;-90
2022/04/29 00:58:16;;;;;;;6.85;1.30;;;9.30;99.90;;;;;;4790267;29;20039;-90
2022/04/29 01:00:43;;;;;;;14.20;1.83;;;9.10;99.90;;;;;;4788980;30;20486;-89
2022/04/29 01:03:12;;;;;;;4.65;1.88;;;8.90;99.90;;;;;;4789626;29;20047;-90
2022/04/29 01:05:41;;;;;;;2.13;1.58;;;9.10;99.90;;;;;;4788310;29;20055;-89
2022/04/29 01:08:08;;;;;;;6.20;1.67;;;9.30;99.90;;;;;;4788364;29;20056;-90
2022/04/29 01:10:35;;;;;;;11.65;1.67;;;9.00;99.90;;;;;;4789133;29;20048;-89
2022/04/29 01:13:04;;;;;;;6.80;2.28;;;9.10;99.90;;;;;;4789174;29;20043;-89
2022/04/29 01:15:32;;;;;;;4.18;1.42;;;8.80;99.90;;;;;;4785746;30;20130;-90
2022/04/29 01:18:02;;;;;;;5.97;1.60;;;8.90;99.90;;;;;;4784057;30;20058;-89
2022/04/29 01:20:31;;;;;;;2.38;1.30;;;8.80;99.90;;;;;;4787996;29;20055;-90
2022/04/29 01:23:04;;;;;;;2.42;1.48;;;8.80;99.90;;;;;;4787701;29;20051;-90
2022/04/29 01:25:32;;;;;;;3.00;1.63;;;8.90;99.90;;;;;;4788049;29;20468;-89
2022/04/29 01:27:59;;;;;;;4.20;1.27;;;9.00;99.90;;;;;;4773343;29;20055;-90
2022/04/29 01:30:26;;;;;;;4.30;2.05;;;9.10;99.90;;;;;;4773273;30;20077;-89
2022/04/29 01:32:56;;;;;;;7.57;1.40;;;9.00;99.90;;;;;;4788036;30;20047;-89
2022/04/29 01:35:23;;;;;;;9.32;1.75;;;8.70;99.90;;;;;;4772908;30;20436;-89
2022/04/29 01:37:50;;;;;;;5.18;1.77;;;8.50;99.90;;;;;;4787451;29;20051;-89
2022/04/29 01:40:18;;;;;;;5.43;1.58;;;8.50;99.90;;;;;;4773151;30;20047;-90
2022/04/29 01:42:46;;;;;;;3.70;1.50;;;8.60;99.90;;;;;;4772829;30;20081;-89
2022/04/29 01:45:13;;;;;;;3.22;1.30;;;8.60;99.90;;;;;;4787900;30;20062;-91
2022/04/29 01:48:03;;;;;;;3.45;1.40;;;8.70;99.90;;;;;;4788078;30;20055;-90
2022/04/29 01:51:06;;;;;;;6.72;2.35;;;8.90;99.90;;;;;;4787621;30;20067;-90
2022/04/29 01:53:33;;;;;;;10.18;1.80;;;9.00;99.90;;;;;;4789369;30;20059;-90
2022/04/29 01:56:00;;;;;;;5.28;1.58;;;9.20;99.90;;;;;;4787509;29;20047;-90
2022/04/29 01:58:27;;;;;;;6.78;1.52;;;9.00;99.90;;;;;;4772876;30;20043;-90
2022/04/29 02:00:54;;;;;;;2.92;1.67;;;9.00;99.90;;;;;;4772835;30;20051;-90
2022/04/29 02:03:21;;;;;;;4.22;1.23;;;9.20;99.90;;;;;;4772698;30;20138;-89
2022/04/29 02:05:48;;;;;;;5.72;1.35;;;9.10;99.90;;;;;;4772660;30;20051;-90
2022/04/29 02:08:16;;;;;;;6.78;1.60;;;8.70;99.90;;;;;;4772789;30;20058;-89
2022/04/29 02:10:44;;;;;;;6.20;1.88;;;8.60;99.90;;;;;;4772810;30;20055;-90
2022/04/29 02:13:15;;;;;;;2.70;1.42;;;8.70;99.90;;;;;;4787047;29;20055;-89
2022/04/29 02:16:08;;;;;;;4.97;1.77;;;8.60;99.90;;;;;;4786473;30;20140;-90
2022/04/29 02:18:36;;;;;;;3.22;2.40;;;8.80;99.90;;;;;;4802764;29;20104;-89
2022/04/29 02:21:03;;;;;;;6.20;1.70;;;8.90;99.90;;;;;;4787687;29;20051;-90
2022/04/29 02:23:30;;;;;;;4.65;1.40;;;9.00;99.90;;;;;;4787072;30;20075;-90
2022/04/29 02:25:57;;;;;;;3.72;1.50;;;9.20;99.90;;;;;;4787203;29;20524;-91
2022/04/29 02:28:24;;;;;;;4.65;1.45;;;9.10;99.90;;;;;;4787639;30;20058;-89
2022/04/29 02:30:51;;;;;;;6.80;1.55;;;8.80;99.90;;;;;;4787924;30;20059;-90
2022/04/29 02:33:18;;;;;;;6.60;1.95;;;8.70;99.90;;;;;;4787440;30;20557;-89
2022/04/29 02:35:46;;;;;;;3.63;1.40;;;8.70;99.90;;;;;;4788786;29;20130;-90
2022/04/29 02:38:13;;;;;;;6.25;1.80;;;8.80;99.90;;;;;;4789641;30;20149;-90
2022/04/29 02:40:40;;;;;;;4.32;2.15;;;8.90;99.90;;;;;;4804060;29;20566;-89
2022/04/29 02:43:07;;;;;;;6.30;1.77;;;8.70;99.90;;;;;;4787978;30;20047;-89
2022/04/29 02:45:34;;;;;;;4.45;1.35;;;8.60;99.90;;;;;;4787567;29;20065;-89
2022/04/29 02:48:04;;;;;;;3.38;1.23;;;8.70;99.90;;;;;;4787411;29;20055;-90
2022/04/29 02:50:31;;;;;;;4.68;1.25;;;8.60;99.90;;;;;;4789733;29;20051;-90
2022/04/29 02:53:03;;;;;;;2.70;1.48;;;8.50;99.90;;;;;;4790719;30;20051;-90
2022/04/29 02:55:30;;;;;;;1.75;1.40;;;8.60;99.90;;;;;;4790571;30;20058;-90
2022/04/29 02:58:04;;;;;;;3.17;2.10;;;8.50;99.90;;;;;;4790435;29;20058;-89
2022/04/29 03:00:32;;;;;;;2.40;1.60;;;8.60;99.90;;;;;;4775896;30;20059;-89
2022/04/29 03:02:59;;;;;;;4.07;1.55;;;8.70;99.90;;;;;;4775725;30;20059;-90
2022/04/29 03:05:26;;;;;;;6.65;1.67;;;8.70;99.90;;;;;;4775638;30;20134;-90
2022/04/29 03:07:53;;;;;;;5.80;1.48;;;8.60;99.90;;;;;;4791612;29;20409;-90
2022/04/29 03:10:20;;;;;;;6.95;2.03;;;8.80;99.90;;;;;;4775951;30;20047;-90
2022/04/29 03:12:47;;;;;;;6.72;2.22;;;8.70;99.90;;;;;;4775513;30;20052;-91
2022/04/29 03:15:19;;;;;;;8.48;2.08;;;8.50;99.90;;;;;;4775774;30;20055;-89
2022/04/29 03:20:39;;;;;;;6.70;2.08;;;8.60;99.90;;;;;;4805263;29;20082;-90
2022/04/29 03:23:07;;;;;;;7.88;2.13;;;8.60;99.90;;;;;;4789772;30;20047;-90
2022/04/29 03:25:37;;;;;;;4.60;1.73;;;8.50;99.90;;;;;;4790047;29;20162;-89
2022/04/29 03:28:07;;;;;;;8.75;2.10;;;8.50;99.90;;;;;;4790677;30;20055;-89
2022/04/29 03:30:35;;;;;;;4.22;1.80;;;8.80;99.90;;;;;;4790223;29;20142;-90
2022/04/29 03:33:05;;;;;;;3.40;1.58;;;8.90;99.90;;;;;;4789938;29;20055;-89
2022/04/29 03:35:43;;;;;;;2.92;1.92;;;8.80;99.90;;;;;;4791390;29;20660;-89
2022/04/29 03:38:15;;;;;;;5.38;1.60;;;8.80;99.90;;;;;;4789844;29;20448;-89
2022/04/29 03:40:42;;;;;;;6.82;2.40;;;8.70;99.90;;;;;;4790373;29;20142;-90
2022/04/29 03:43:12;;;;;;;8.55;1.92;;;8.70;99.90;;;;;;4789649;30;20502;-90
2022/04/29 03:45:41;;;;;;;4.65;1.70;;;8.50;99.90;;;;;;4789705;30;20058;-89
2022/04/29 03:48:12;;;;;;;5.55;1.50;;;8.60;99.90;;;;;;4790005;29;20062;-89
2022/04/29 03:50:57;;;;;;;6.70;1.60;;;8.60;99.90;;;;;;4782985;30;20479;-89
2022/04/29 03:53:24;;;;;;;2.60;1.52;;;8.60;99.90;;;;;;4772066;30;20101;-90
2022/04/29 03:55:57;;;;;;;3.63;1.90;;;8.60;99.90;;;;;;4781517;29;20058;-90
2022/04/29 03:58:25;;;;;;;9.75;2.08;;;8.70;99.90;;;;;;4776565;30;20058;-89
2022/04/29 04:00:52;;;;;;;3.38;1.60;;;8.70;99.90;;;;;;4789323;29;20549;-89
2022/04/29 04:03:34;;;;;;;2.20;1.65;;;9.00;99.90;;;;;;4789497;29;20051;-89
2022/04/29 04:08:57;;;;;;;2.10;1.67;;;8.70;99.90;;;;;;4790010;29;20063;-89
2022/04/29 04:11:24;;;;;;;3.67;2.13;;;8.70;99.90;;;;;;4780021;29;20083;-90
2022/04/29 04:13:51;;;;;;;2.67;1.50;;;8.60;99.90;;;;;;4780882;30;20082;-90
2022/04/29 04:16:40;;;;;;;4.22;1.58;;;8.60;99.90;;;;;;4778519;30;20055;-91
2022/04/29 04:19:16;;;;;;;6.90;2.03;;;8.70;99.90;;;;;;4771539;29;20407;-91
2022/04/29 04:21:45;;;;;;;2.72;1.45;;;8.80;99.90;;;;;;4771658;30;20052;-88
2022/04/29 04:24:12;;;;;;;1.77;1.48;;;8.80;99.90;;;;;;4771670;30;20044;-91
2022/04/29 04:26:44;;;;;;;4.13;1.55;;;9.00;99.90;;;;;;4771954;29;20580;-92
2022/04/29 04:29:18;;;;;;;3.85;1.70;;;8.90;99.90;;;;;;4772015;30;20058;-91
2022/04/29 04:31:49;;;;;;;2.92;1.52;;;9.10;99.90;;;;;;4771630;30;20142;-90
2022/04/29 04:37:14;;;;;;;5.43;1.73;;;8.90;99.90;;;;;;4786246;30;20109;-91
2022/04/29 04:40:00;;;;;;;4.47;1.70;;;8.90;99.90;;;;;;4788287;29;20587;-89
2022/04/29 04:42:54;;;;;;;5.15;1.88;;;9.00;99.90;;;;;;4773252;29;20044;-91
2022/04/29 04:45:37;;;;;;;4.82;1.65;;;8.80;99.90;;;;;;4770954;30;20050;-91
2022/04/29 04:48:44;;;;;;;4.50;1.40;;;8.60;99.90;;;;;;4788825;29;20122;-91
2022/04/29 04:51:31;;;;;;;1.77;1.48;;;8.90;99.90;;;;;;4790189;30;20059;-93
2022/04/29 04:54:16;;;;;;;8.75;1.65;;;9.10;99.90;;;;;;4791596;29;20628;-91
2022/04/29 13:40:13;;;;;;;4.57;1.55;;;13.00;1.00;;;;;;5618438;24;20103;-93
2022/04/29 13:42:57;;;;;;;3.40;1.40;;;13.10;1.00;;;;;;4773890;30;20109;-94
2022/04/29 13:48:31;;;;;;;4.55;1.23;;;12.60;1.00;;;;;;4739170;30;20531;-89
2022/04/29 13:50:58;;;;;;;3.28;1.70;;;12.70;1.00;;;;;;4734153;30;20159;-90
2022/04/29 13:53:25;;;;;;;3.28;1.33;;;12.80;1.00;;;;;;4733647;30;20049;-90
2022/04/29 13:55:59;;;;;;;4.90;1.35;;;13.10;1.00;;;;;;4745174;30;20052;-89
2022/04/29 13:59:00;;;;;;;2.90;1.63;;;12.80;1.00;;;;;;4717235;30;20072;-92
2022/04/29 14:34:13;;;;;;;4.28;1.65;;;11.70;1.00;;;;;;5072665;28;20378;-89
2022/04/29 15:36:16;;;;;;;4.45;2.50;;;11.80;1.00;;;;;;5532166;23;20076;-86
2022/04/29 15:38:43;;;;;;;5.50;2.08;;;11.90;1.00;;;;;;4913102;29;20514;-87
2022/04/29 15:41:10;;;;;;;4.40;2.72;;;11.70;1.00;;;;;;4920463;29;20471;-87
2022/04/29 15:43:37;;;;;;;5.38;2.53;;;12.10;1.00;;;;;;4917705;29;20047;-87
2022/04/29 15:46:04;;;;;;;5.82;2.15;;;12.10;1.00;;;;;;4901679;29;20503;-87
2022/04/29 15:48:31;;;;;;;5.03;2.63;;;12.10;1.00;;;;;;4901975;29;20051;-86
2022/04/29 15:50:58;;;;;;;4.00;2.40;;;11.80;1.00;;;;;;4900990;29;20044;-87
2022/04/29 15:59:19;;;;;;;6.40;2.15;;;11.40;1.00;;;;;;5658511;23;20091;-89
2022/04/29 16:01:47;;;;;;;6.22;2.65;;;11.70;1.00;;;;;;4917355;29;20088;-89
2022/04/29 16:04:23;;;;;;;6.53;2.67;;;11.40;1.00;;;;;;4899076;29;20506;-89
2022/04/29 16:06:55;;;;;;;6.72;2.80;;;11.70;1.00;;;;;;4907064;29;20052;-89
2022/04/29 16:13:16;;;;;;;4.00;3.10;;;12.00;1.00;;;;;;4879698;29;20139;-91
2022/04/29 16:16:22;;;;;;;4.25;2.85;;;12.30;1.00;;;;;;4866246;29;20068;-88
2022/04/29 16:30:47;;;;;;;8.85;3.33;;;12.00;1.00;;;;;;4781577;30;20051;-89
2022/04/29 16:33:31;;;;;;;2.67;2.38;;;11.80;1.00;;;;;;4773074;30;20059;-89
2022/04/29 16:36:08;;;;;;;7.77;3.37;;;11.50;1.00;;;;;;4789061;29;20055;-88
2022/04/29 16:39:45;;;;;;;5.53;2.55;;;11.30;1.00;;;;;;4775019;30;20134;-88
2022/04/29 16:42:36;;;;;;;10.48;2.88;;;11.50;1.00;;;;;;4785995;29;20059;-89
2022/04/29 16:45:32;;;;;;;5.28;2.80;;;11.80;1.00;;;;;;4772191;30;20047;-89
2022/04/29 16:48:09;;;;;;;9.40;2.33;;;12.00;1.00;;;;;;4776763;30;20096;-89
2022/04/29 16:50:45;;;;;;;5.00;2.72;;;11.90;1.00;;;;;;4772103;30;20303;-89
2022/04/29 16:53:16;;;;;;;5.03;2.05;;;11.60;1.00;;;;;;4791524;29;20519;-89
2022/04/29 16:55:49;;;;;;;3.60;3.17;;;11.70;1.00;;;;;;4773087;30;20059;-89
2022/04/29 17:01:15;;;;;;;6.32;3.53;;;11.80;1.00;;;;;;4813213;29;20065;-89
2022/04/29 17:04:10;;;;;;;5.63;2.72;;;11.70;1.00;;;;;;4876043;29;20470;-88
2022/04/29 17:07:10;;;;;;;8.88;3.60;;;11.30;1.00;;;;;;4851284;29;20049;-89
2022/04/29 17:09:55;;;;;;;4.88;2.70;;;11.90;1.00;;;;;;4852132;29;20059;-89
2022/04/29 17:12:29;;;;;;;8.85;2.78;;;11.90;1.00;;;;;;4866898;29;20059;-88
2022/04/29 17:15:14;;;;;;;5.97;2.60;;;11.70;1.00;;;;;;4898900;29;20037;-89
2022/04/29 17:18:15;;;;;;;5.18;2.33;;;11.80;1.00;;;;;;4884098;29;20052;-89
2022/04/29 17:20:56;;;;;;;7.05;3.58;;;11.50;1.00;;;;;;4899871;29;20041;-89
2022/04/29 17:23:43;;;;;;;5.22;2.88;;;11.60;1.00;;;;;;4884941;29;20419;-90
2022/04/29 17:26:15;;;;;;;5.90;2.65;;;11.70;1.00;;;;;;4885839;29;20056;-91
2022/04/29 17:28:53;;;;;;;5.32;3.28;;;11.70;1.00;;;;;;4884716;29;20045;-90
2022/04/29 17:31:22;;;;;;;7.40;2.20;;;11.20;1.00;;;;;;4895035;29;20043;-89
2022/04/29 17:33:52;;;;;;;5.25;3.25;;;11.60;1.00;;;;;;4882601;29;20041;-88
2022/04/29 17:36:22;;;;;;;7.80;3.15;;;11.80;1.00;;;;;;4872552;29;20093;-89
2022/04/29 17:42:21;;;;;;;5.32;3.03;;;12.10;1.00;;;;;;4883618;29;20103;-91
2022/04/29 17:47:38;;;;;;;6.32;3.22;;;11.30;1.00;;;;;;4968244;23;20398;-89
2022/04/29 17:50:20;;;;;;;6.30;2.83;;;11.70;1.00;;;;;;4899460;29;20506;-91
2022/04/29 17:52:55;;;;;;;6.10;3.17;;;11.50;1.00;;;;;;4882538;29;20076;-91
2022/04/29 17:55:29;;;;;;;7.55;2.90;;;11.20;1.00;;;;;;4882464;29;20673;-90
2022/04/29 17:57:59;;;;;;;8.68;2.92;;;11.20;1.00;;;;;;4882973;29;20064;-89
2022/04/29 18:00:27;;;;;;;8.18;2.80;;;11.00;1.00;;;;;;4882803;29;20041;-90
2022/04/29 18:03:07;;;;;;;4.80;3.08;;;11.50;1.00;;;;;;4882038;29;20048;-89
2022/04/29 18:05:34;;;;;;;4.88;3.17;;;11.60;1.00;;;;;;4867048;29;20530;-89
2022/04/29 18:08:01;;;;;;;4.93;2.67;;;11.10;1.00;;;;;;4899106;29;20049;-90
2022/04/29 18:10:29;;;;;;;5.72;3.05;;;11.30;1.00;;;;;;4882849;29;20052;-90
2022/04/29 18:12:58;;;;;;;7.32;3.15;;;11.30;1.00;;;;;;4897746;29;20111;-90
2022/04/29 18:15:29;;;;;;;5.53;3.10;;;11.30;1.00;;;;;;4882494;29;20052;-90
2022/04/29 18:17:57;;;;;;;4.13;2.97;;;11.00;1.00;;;;;;4882638;29;20079;-90
2022/04/29 18:20:24;;;;;;;6.35;3.03;;;11.00;1.00;;;;;;4882708;29;20136;-89
2022/04/29 18:22:52;;;;;;;6.13;2.47;;;10.40;1.00;;;;;;4883474;29;20052;-89
2022/04/29 18:25:20;;;;;;;6.72;2.92;;;11.10;1.00;;;;;;4883000;29;20049;-89
2022/04/29 18:27:48;;;;;;;7.53;3.25;;;11.10;1.00;;;;;;4883659;29;20055;-89
2022/04/29 18:30:18;;;;;;;2.38;2.17;;;10.90;1.00;;;;;;4883092;29;20053;-91
2022/04/29 18:32:54;;;;;;;7.15;3.20;;;11.30;1.00;;;;;;4899913;29;20040;-91
2022/04/29 18:35:21;;;;;;;7.65;4.63;;;11.40;1.00;;;;;;4883377;29;20076;-89
2022/04/29 18:37:49;;;;;;;8.18;3.08;;;11.30;1.00;;;;;;4882727;29;20123;-89
2022/04/29 18:40:16;;;;;;;4.95;2.75;;;11.00;1.00;;;;;;4868247;29;20048;-89
2022/04/29 18:42:44;;;;;;;7.68;3.75;;;11.00;1.00;;;;;;4883428;29;20155;-89
2022/04/29 18:45:13;;;;;;;6.38;3.70;;;10.90;1.00;;;;;;4868746;29;20056;-89
2022/04/29 18:47:55;;;;;;;4.90;3.78;;;11.00;1.00;;;;;;4900566;29;20045;-89
2022/04/29 18:50:25;;;;;;;6.60;2.80;;;10.90;1.00;;;;;;4870851;29;20452;-90
2022/04/29 18:52:52;;;;;;;4.90;2.15;;;11.00;1.00;;;;;;4884332;29;20037;-89
2022/04/29 18:55:22;;;;;;;3.22;2.63;;;10.80;1.00;;;;;;4897157;29;20060;-90
2022/04/29 18:57:50;;;;;;;6.03;3.13;;;11.00;1.00;;;;;;4883235;29;20394;-89
2022/04/29 19:00:17;;;;;;;5.28;2.97;;;11.00;1.00;;;;;;4879271;29;20084;-90
2022/04/29 19:02:46;;;;;;;7.88;3.10;;;11.10;1.00;;;;;;4898681;29;20037;-90
2022/04/29 19:05:14;;;;;;;9.68;2.85;;;10.70;1.00;;;;;;4867747;29;20126;-89
2022/04/29 19:07:41;;;;;;;6.32;3.28;;;10.70;1.00;;;;;;4883004;29;20072;-91
2022/04/29 19:10:08;;;;;;;4.60;2.83;;;10.50;1.00;;;;;;4898300;29;20049;-91
2022/04/29 19:12:35;;;;;;;6.22;3.03;;;10.70;1.00;;;;;;4883607;29;20052;-91
2022/04/29 19:15:03;;;;;;;6.35;3.22;;;10.70;1.00;;;;;;4869134;29;20053;-91
2022/04/29 19:17:30;;;;;;;3.42;2.38;;;10.50;1.00;;;;;;4886590;29;20077;-90
2022/04/29 19:19:58;;;;;;;6.38;2.95;;;10.80;1.00;;;;;;4886616;29;20415;-91
2022/04/29 19:22:25;;;;;;;5.15;2.83;;;10.40;1.00;;;;;;4886485;29;20049;-92
2022/04/29 19:24:53;;;;;;;4.60;2.67;;;10.50;1.00;;;;;;4901797;29;20055;-91
2022/04/29 19:27:20;;;;;;;4.05;2.75;;;10.60;1.00;;;;;;4885487;29;20059;-91
2022/04/29 19:29:47;;;;;;;9.98;3.65;;;10.20;1.00;;;;;;4885655;29;20103;-91
2022/04/29 19:32:16;;;;;;;6.35;3.40;;;10.00;1.00;;;;;;4885800;29;20045;-91
2022/04/29 19:34:44;;;;;;;6.00;3.00;;;10.00;1.00;;;;;;4870337;29;20053;-91
2022/04/29 19:37:14;;;;;;;6.43;3.40;;;10.10;1.00;;;;;;4886148;29;20077;-91
2022/04/29 19:39:42;;;;;;;5.40;3.40;;;10.30;1.00;;;;;;4885794;29;20056;-91
2022/04/29 19:42:09;;;;;;;4.30;2.63;;;10.50;1.00;;;;;;4885335;29;20048;-92
2022/04/29 19:44:36;;;;;;;5.20;2.92;;;10.60;1.00;;;;;;4885446;29;20104;-90
2022/04/29 19:47:05;;;;;;;5.20;2.78;;;10.50;1.00;;;;;;4886381;29;20069;-91
2022/04/29 19:49:33;;;;;;;4.47;3.40;;;10.60;1.00;;;;;;4886952;29;20135;-91
2022/04/29 19:52:01;;;;;;;5.25;3.70;;;10.60;1.00;;;;;;4870368;29;20064;-91
2022/04/29 19:54:28;;;;;;;9.05;3.60;;;10.60;1.00;;;;;;4884719;29;20053;-91
2022/04/29 20:00:06;;;;;;;4.95;3.40;;;10.20;1.00;;;;;;4848692;29;20056;-91
2022/04/29 20:05:25;;;;;;;8.80;3.00;;;10.40;1.00;;;;;;4866095;29;20045;-90
2022/04/29 20:07:52;;;;;;;6.03;3.00;;;10.30;1.00;;;;;;4865834;29;20081;-91
2022/04/29 20:10:26;;;;;;;5.43;3.38;;;10.40;1.00;;;;;;4882939;29;20041;-92
2022/04/29 20:12:56;;;;;;;5.50;3.53;;;10.20;1.00;;;;;;4865375;29;20060;-89
2022/04/29 20:15:39;;;;;;;4.68;3.25;;;10.20;1.00;;;;;;4883326;29;20053;-90
2022/04/29 20:46:38;;;;;;;4.43;2.95;;;10.20;1.00;;;;;;4898894;29;20049;-91
2022/04/29 21:02:33;;;;;;;6.68;2.45;;;10.10;1.00;;;;;;5743437;23;20131;-90
2022/04/29 22:04:17;;;;;;;6.00;3.75;;;9.50;1.00;;;;;;5127407;23;20352;-92
2022/04/29 22:12:19;;;;;;;;;;;;;;;;;;;;;
2022/04/29 22:16:45;;;;;;;;;;;;;;;;;;;;;
2022/04/29 22:21:06;;;;;;;;;;;;;;;;;;;;;
2022/04/29 22:24:39;;;;;;;7.93;3.20;;;9.50;1.00;;;;;;4798556;29;20073;-93
2022/04/29 23:31:13;;;;;;;;;;;;;;;;;;;;;
